Главная страница
METAR-TAF:

METAR-TAF

Аэропорты :

Турсбю, Швеция

широта: 60-09-17N, долгота: 12-59-40E, высота над уровнем моря: 120 м

Текущие метеонаблюдения

Эта сводка был подготовлена 26 минут назад, в 20:20 UTC
Ветер 5 Узел от южный
Температура 10°C
Влажность 82%
Давление 1010 hPa
Видимость 10 км и более

METAR: ESST 132020Z AUTO 18005KT 9999 NCD 10/07 Q1010

Время: 22:46 (20:46 UTC)


TAF: отсутствует

Метеонаблюдения и прогнозы для более 4000 аэропортов (сводки METAR и TAF).

Имеющиеся станции представлены на карте желтыми и красными точками.

Чтобы увидеть название станции, наведите на нее мышь.

Затем щелкните, чтобы увидеть метеонаблюдения и метеопрогнозы.

Управление картой: чтобы увеличить масштаб, щелкните зеленые кнопки с черным крестиком; чтобы уменьшить масштаб, щелкните зеленую кнопку с тире; для просмотра соседних карт щелкайте зеленые стрелки.


METAR-TAF: